createdAt,value
2022-09-23T00:00:33.532Z,2.73
2022-09-23T00:03:00.301Z,2.43
2022-09-23T00:05:27.232Z,1.80
2022-09-23T00:07:55.229Z,1.80
2022-09-23T00:10:22.715Z,1.97
2022-09-23T00:12:49.504Z,1.70
2022-09-23T00:15:16.300Z,1.93
2022-09-23T00:17:43.181Z,1.93
2022-09-23T00:20:10.428Z,2.93
2022-09-23T00:22:37.584Z,2.40
2022-09-23T00:25:04.704Z,1.70
2022-09-23T00:27:31.228Z,1.73
2022-09-23T00:29:57.828Z,3.57
2022-09-23T00:32:24.817Z,1.50
2022-09-23T00:34:52.058Z,3.90
2022-09-23T00:37:19.316Z,2.10
2022-09-23T00:39:46.711Z,2.67
2022-09-23T00:42:14.633Z,2.17
2022-09-23T00:44:54.715Z,1.80
2022-09-23T00:47:24.294Z,2.10
2022-09-23T00:50:17.063Z,1.97
2022-09-23T00:52:43.667Z,1.67
2022-09-23T00:55:13.183Z,1.70
2022-09-23T00:57:40.800Z,1.63
2022-09-23T01:00:08.088Z,2.70
2022-09-23T01:02:34.847Z,2.17
2022-09-23T01:05:01.924Z,2.03
2022-09-23T01:07:30.164Z,1.80
2022-09-23T01:09:57.881Z,1.47
2022-09-23T01:12:31.256Z,2.87
2022-09-23T01:15:14.609Z,2.47
2022-09-23T01:17:59.735Z,1.80
2022-09-23T01:20:44.935Z,1.80
2022-09-23T01:23:17.863Z,1.60
2022-09-23T01:26:04.004Z,3.23
2022-09-23T01:28:45.899Z,2.43
2022-09-23T01:31:15.376Z,2.27
2022-09-23T01:33:51.397Z,1.40
2022-09-23T01:36:26.446Z,1.60
2022-09-23T01:38:59.629Z,3.03
2022-09-23T01:41:26.795Z,1.53
2022-09-23T01:44:14.051Z,2.27
2022-09-23T01:46:55.578Z,1.60
2022-09-23T01:49:25.424Z,3.80
2022-09-23T01:52:15.502Z,2.40
2022-09-23T01:54:51.805Z,2.07
2022-09-23T01:57:27.731Z,2.10
2022-09-23T01:59:56.869Z,2.20
2022-09-23T02:02:26.666Z,1.70
2022-09-23T02:05:10.293Z,2.00
2022-09-23T02:07:43.191Z,1.80
2022-09-23T02:10:28.668Z,1.57
2022-09-23T02:12:59.664Z,1.67
2022-09-23T02:15:29.189Z,1.60
2022-09-23T02:17:59.171Z,3.07
2022-09-23T02:20:28.577Z,1.70
2022-09-23T02:23:01.642Z,3.90
2022-09-23T02:25:34.017Z,1.60
2022-09-23T02:28:14.931Z,1.60
2022-09-23T02:30:47.082Z,2.30
2022-09-23T02:33:36.356Z,2.93
2022-09-23T02:36:12.352Z,2.60
2022-09-23T02:38:47.020Z,2.00
2022-09-23T02:41:16.306Z,1.57
2022-09-23T02:43:46.305Z,2.43
2022-09-23T02:46:13.165Z,5.53
2022-09-23T02:48:51.512Z,1.97
2022-09-23T02:51:18.083Z,2.77
2022-09-23T02:53:45.941Z,4.00
2022-09-23T02:56:16.220Z,1.67
2022-09-23T02:58:43.172Z,2.53
2022-09-23T03:01:10.840Z,1.50
2022-09-23T03:03:44.918Z,2.07
2022-09-23T03:06:20.229Z,1.60
2022-09-23T03:08:50.534Z,1.60
2022-09-23T03:11:17.677Z,1.50
2022-09-23T03:13:53.361Z,2.10
2022-09-23T03:16:25.820Z,1.33
2022-09-23T03:18:55.912Z,1.50
2022-09-23T03:21:25.241Z,2.13
2022-09-23T03:23:53.284Z,2.13
2022-09-23T03:26:23.923Z,3.80
2022-09-23T03:28:50.895Z,3.63
2022-09-23T03:31:17.819Z,2.77
2022-09-23T03:33:49.957Z,3.20
2022-09-23T03:36:37.236Z,1.40
2022-09-23T03:39:10.169Z,1.83
2022-09-23T03:41:43.829Z,2.23
2022-09-23T03:44:10.905Z,1.97
2022-09-23T03:46:37.572Z,1.70
2022-09-23T03:49:08.188Z,2.60
2022-09-23T03:51:34.800Z,1.50
2022-09-23T03:54:01.353Z,1.70
2022-09-23T03:56:28.041Z,1.63
2022-09-23T03:58:54.623Z,3.63
2022-09-23T04:01:21.236Z,2.77
2022-09-23T04:03:49.094Z,4.17
2022-09-23T04:06:15.669Z,1.60
2022-09-23T04:08:42.226Z,1.70
2022-09-23T04:11:09.856Z,2.00
2022-09-23T04:13:36.486Z,2.33
2022-09-23T04:16:03.129Z,1.90
2022-09-23T04:18:29.741Z,4.13
2022-09-23T04:20:59.850Z,2.77
2022-09-23T04:23:27.117Z,4.03
2022-09-23T04:25:53.984Z,2.10
2022-09-23T04:28:20.863Z,1.90
2022-09-23T04:30:48.895Z,3.47
2022-09-23T04:33:16.190Z,1.67
2022-09-23T04:35:45.458Z,1.93
2022-09-23T04:38:12.666Z,2.27
2022-09-23T04:40:39.659Z,1.77
2022-09-23T04:43:07.856Z,1.90
2022-09-23T04:45:37.232Z,2.63
2022-09-23T04:48:03.946Z,2.00
2022-09-23T04:50:33.842Z,2.90
2022-09-23T04:53:00.856Z,3.67
2022-09-23T04:55:27.506Z,4.77
2022-09-23T04:57:54.100Z,2.00
2022-09-23T05:00:20.875Z,3.67
2022-09-23T05:02:48.250Z,3.00
2022-09-23T05:05:18.637Z,4.73
2022-09-23T05:07:45.203Z,4.10
2022-09-23T05:10:11.796Z,2.20
2022-09-23T05:12:38.382Z,4.50
2022-09-23T05:15:05.212Z,3.50
2022-09-23T05:17:31.926Z,3.53
2022-09-23T05:19:59.038Z,2.33
2022-09-23T05:22:26.626Z,2.70
2022-09-23T05:24:53.510Z,2.47
2022-09-23T05:27:20.420Z,4.80
2022-09-23T05:29:47.659Z,3.80
2022-09-23T05:32:15.356Z,4.73
2022-09-23T05:34:41.885Z,6.23
2022-09-23T05:37:08.736Z,9.77
2022-09-23T05:39:35.651Z,8.50
2022-09-23T05:42:02.322Z,10.00
2022-09-23T05:44:29.076Z,8.10
2022-09-23T05:46:55.748Z,8.27
2022-09-23T05:49:29.669Z,8.33
2022-09-23T05:52:08.859Z,10.60
2022-09-23T05:54:35.682Z,3.63
2022-09-23T05:57:04.994Z,2.77
2022-09-23T05:59:31.805Z,2.77
2022-09-23T06:01:59.104Z,2.87
2022-09-23T06:04:25.691Z,2.70
2022-09-23T06:06:53.198Z,7.20
2022-09-23T06:09:19.723Z,2.37
2022-09-23T06:11:46.841Z,4.03
2022-09-23T06:14:14.814Z,2.93
2022-09-23T06:16:41.617Z,3.70
2022-09-23T06:19:08.164Z,5.03
2022-09-23T06:21:36.041Z,6.57
2022-09-23T06:24:05.411Z,4.63
2022-09-23T06:26:35.140Z,5.00
2022-09-23T06:29:02.876Z,5.03
2022-09-23T06:31:30.033Z,3.73
2022-09-23T06:34:08.035Z,2.27
2022-09-23T06:36:43.310Z,3.57
2022-09-23T06:39:11.528Z,2.13
2022-09-23T06:41:42.706Z,3.03
2022-09-23T06:44:13.318Z,3.67
2022-09-23T06:46:40.287Z,1.83
2022-09-23T06:49:07.068Z,2.73
2022-09-23T06:51:34.874Z,4.23
2022-09-23T06:54:01.603Z,6.50
2022-09-23T06:56:37.952Z,2.50
2022-09-23T06:59:13.207Z,5.10
2022-09-23T07:01:40.040Z,3.03
2022-09-23T07:04:16.502Z,3.47
2022-09-23T07:06:43.101Z,2.97
2022-09-23T07:09:11.094Z,4.70
2022-09-23T07:11:37.915Z,5.00
2022-09-23T07:14:04.690Z,2.80
2022-09-23T07:16:32.938Z,1.90
2022-09-23T07:18:59.570Z,3.03
2022-09-23T07:21:27.964Z,3.70
2022-09-23T07:23:55.277Z,2.83
2022-09-23T07:26:22.880Z,3.87
2022-09-23T07:28:54.965Z,4.20
2022-09-23T07:31:38.771Z,2.90
2022-09-23T07:34:12.417Z,3.07
2022-09-23T07:36:43.718Z,2.67
2022-09-23T07:39:15.431Z,3.00
2022-09-23T07:42:05.461Z,6.93
2022-09-23T07:44:40.719Z,5.53
2022-09-23T07:47:12.122Z,6.80
2022-09-23T07:49:43.269Z,7.70
2022-09-23T07:52:14.895Z,5.93
2022-09-23T07:55:07.754Z,5.10
2022-09-23T07:57:43.476Z,4.57
2022-09-23T08:00:20.826Z,5.90
2022-09-23T08:03:09.880Z,5.23
2022-09-23T08:06:04.695Z,8.03
2022-09-23T08:08:32.663Z,6.20
2022-09-23T08:11:03.654Z,5.70
2022-09-23T08:13:33.608Z,4.93
2022-09-23T08:16:02.081Z,3.83
2022-09-23T08:18:29.561Z,3.00
2022-09-23T08:20:56.205Z,2.93
2022-09-23T08:23:23.218Z,4.10
2022-09-23T08:25:59.508Z,7.43
2022-09-23T08:28:26.817Z,5.93
2022-09-23T08:30:53.503Z,7.13
2022-09-23T08:33:23.320Z,7.80
2022-09-23T08:35:51.125Z,4.27
2022-09-23T08:38:17.771Z,3.90
2022-09-23T08:40:47.556Z,1.53
2022-09-23T08:43:18.022Z,1.53
2022-09-23T08:45:45.382Z,1.63
2022-09-23T08:48:14.166Z,2.90
2022-09-23T08:50:48.353Z,2.23
2022-09-23T08:53:26.660Z,2.97
2022-09-23T08:55:55.259Z,1.90
2022-09-23T08:58:41.377Z,1.43
2022-09-23T09:01:37.413Z,1.60
2022-09-23T09:04:12.784Z,1.50
2022-09-23T09:06:53.719Z,2.47
2022-09-23T09:09:33.091Z,1.70
2022-09-23T09:12:21.292Z,2.47
2022-09-23T09:15:11.662Z,3.37
2022-09-23T09:17:39.984Z,1.60
2022-09-23T09:20:12.961Z,6.60
2022-09-23T09:22:41.245Z,1.83
2022-09-23T09:25:24.192Z,2.90
2022-09-23T09:27:51.859Z,3.70
2022-09-23T09:30:19.491Z,1.47
2022-09-23T09:32:55.338Z,4.53
2022-09-23T09:35:35.438Z,2.13
2022-09-23T09:38:05.825Z,3.97
2022-09-23T09:40:36.524Z,2.67
2022-09-23T09:43:07.493Z,3.30
2022-09-23T09:45:35.332Z,3.00
2022-09-23T09:48:06.175Z,2.07
2022-09-23T09:50:49.624Z,4.10
2022-09-23T09:53:20.567Z,2.10
2022-09-23T09:56:03.691Z,3.30
2022-09-23T09:58:34.783Z,2.23
2022-09-23T10:01:01.923Z,2.77
2022-09-23T10:03:33.676Z,8.07
2022-09-23T10:06:00.313Z,3.60
2022-09-23T10:08:26.873Z,3.17
2022-09-23T10:11:04.085Z,3.00
2022-09-23T10:13:31.335Z,3.70
2022-09-23T10:16:03.958Z,3.43
2022-09-23T10:18:31.972Z,3.50
2022-09-23T10:21:14.509Z,3.17
2022-09-23T10:23:45.475Z,3.60
2022-09-23T10:26:13.124Z,2.27
2022-09-23T10:28:41.349Z,1.90
2022-09-23T10:31:25.402Z,3.07
2022-09-23T10:33:54.752Z,1.60
2022-09-23T10:36:21.812Z,3.20
2022-09-23T10:38:50.653Z,2.20
2022-09-23T10:41:50.248Z,2.10
2022-09-23T10:44:19.767Z,2.03
2022-09-23T10:46:49.359Z,2.23
2022-09-23T10:49:35.135Z,2.90
2022-09-23T10:52:22.496Z,4.10
2022-09-23T10:55:10.417Z,2.07
2022-09-23T10:57:46.557Z,1.83
2022-09-23T11:00:19.124Z,3.13
2022-09-23T11:02:49.175Z,1.97
2022-09-23T11:05:30.636Z,3.00
2022-09-23T11:08:03.125Z,1.93
2022-09-23T11:10:45.474Z,2.50
2022-09-23T11:13:20.340Z,2.97
2022-09-23T11:15:52.674Z,1.70
2022-09-23T11:18:39.094Z,3.73
2022-09-23T11:21:07.230Z,2.63
2022-09-23T11:23:39.892Z,3.93
2022-09-23T11:26:19.604Z,2.10
2022-09-23T11:28:58.106Z,2.13
2022-09-23T11:31:31.159Z,2.97
2022-09-23T11:34:11.157Z,1.93
2022-09-23T11:36:50.957Z,2.43
2022-09-23T11:39:19.360Z,2.27
2022-09-23T11:41:46.788Z,2.67
2022-09-23T11:44:13.345Z,2.80
2022-09-23T11:46:42.181Z,2.47
2022-09-23T11:49:21.318Z,2.83
2022-09-23T11:52:06.665Z,2.03
2022-09-23T11:54:39.042Z,5.77
2022-09-23T11:57:09.986Z,1.97
2022-09-23T11:59:41.794Z,1.40
2022-09-23T12:02:20.146Z,1.63
2022-09-23T12:04:57.810Z,4.53
2022-09-23T12:07:29.072Z,3.30
2022-09-23T12:10:06.315Z,3.27
2022-09-23T12:12:38.620Z,2.27
2022-09-23T12:15:06.420Z,3.93
2022-09-23T12:17:33.317Z,26.50
2022-09-23T12:20:18.553Z,3.00
2022-09-23T12:22:51.062Z,3.43
2022-09-23T12:25:26.939Z,3.40
2022-09-23T12:27:55.308Z,3.37
2022-09-23T12:30:25.070Z,2.90
2022-09-23T12:32:52.003Z,3.33
2022-09-23T12:35:32.144Z,2.60
2022-09-23T12:38:00.202Z,3.73
2022-09-23T12:40:31.226Z,3.03
2022-09-23T12:42:59.325Z,2.53
2022-09-23T12:45:35.070Z,2.77
2022-09-23T12:48:03.278Z,2.13
2022-09-23T12:50:48.771Z,2.37
2022-09-23T12:53:33.569Z,3.77
2022-09-23T12:56:15.371Z,2.30
2022-09-23T12:58:42.265Z,2.87
2022-09-23T13:01:15.035Z,3.97
2022-09-23T13:04:04.103Z,4.30
2022-09-23T13:06:39.188Z,2.70
2022-09-23T13:09:16.880Z,4.23
2022-09-23T13:11:45.447Z,3.30
2022-09-23T13:14:14.883Z,2.43
2022-09-23T13:16:45.947Z,2.70
2022-09-23T13:19:28.154Z,4.13
2022-09-23T13:21:54.816Z,3.40
2022-09-23T13:24:33.680Z,2.77
2022-09-23T13:27:03.148Z,2.93
2022-09-23T13:29:48.524Z,1.40
2022-09-23T13:32:18.401Z,2.70
2022-09-23T13:35:17.801Z,2.40
2022-09-23T13:37:48.150Z,3.60
2022-09-23T13:40:17.786Z,3.00
2022-09-23T13:42:45.896Z,2.23
2022-09-23T13:45:15.320Z,2.30
2022-09-23T13:47:42.948Z,2.07
2022-09-23T13:50:14.769Z,2.00
2022-09-23T13:52:41.764Z,3.50
2022-09-23T13:55:23.951Z,1.60
2022-09-23T13:57:57.056Z,4.20
2022-09-23T14:00:25.565Z,5.40
2022-09-23T14:02:55.516Z,4.63
2022-09-23T14:05:26.374Z,3.60
2022-09-23T14:07:53.825Z,4.00
2022-09-23T14:10:22.328Z,4.23
2022-09-23T14:12:50.600Z,5.23
2022-09-23T14:15:18.744Z,4.23
2022-09-23T14:17:47.189Z,5.40
2022-09-23T14:20:14.450Z,3.03
2022-09-23T14:22:41.118Z,3.87
2022-09-23T14:25:14.695Z,4.70
2022-09-23T14:27:42.570Z,3.20
2022-09-23T14:30:17.946Z,3.23
2022-09-23T14:32:45.331Z,4.17
2022-09-23T14:35:19.504Z,3.07
2022-09-23T14:38:05.821Z,2.93
2022-09-23T14:40:34.037Z,2.67
2022-09-23T14:43:05.149Z,3.30
2022-09-23T14:45:34.655Z,3.60
2022-09-23T14:48:13.433Z,4.73
2022-09-23T14:50:48.841Z,5.70
2022-09-23T14:53:24.328Z,4.03
2022-09-23T14:55:52.908Z,4.93
2022-09-23T14:58:21.174Z,3.83
2022-09-23T15:01:00.944Z,3.07
2022-09-23T15:03:28.489Z,4.27
2022-09-23T15:06:04.067Z,2.53
2022-09-23T15:08:34.917Z,4.43
2022-09-23T15:11:08.004Z,2.83
2022-09-23T15:13:42.090Z,5.10
2022-09-23T15:16:08.829Z,4.60
2022-09-23T15:18:41.202Z,6.37
2022-09-23T15:21:09.884Z,4.30
2022-09-23T15:23:36.626Z,4.13
2022-09-23T15:26:07.335Z,3.70
2022-09-23T15:28:33.898Z,5.47
2022-09-23T15:31:00.501Z,5.07
2022-09-23T15:33:28.290Z,4.17
2022-09-23T15:35:54.936Z,2.47
2022-09-23T15:38:22.041Z,2.73
2022-09-23T15:40:49.243Z,4.10
2022-09-23T15:43:26.718Z,4.97
2022-09-23T15:45:57.588Z,3.77
2022-09-23T15:48:25.844Z,4.83
2022-09-23T15:50:54.400Z,7.10
2022-09-23T15:53:22.501Z,4.87
2022-09-23T15:55:52.151Z,4.13
2022-09-23T15:58:19.222Z,5.63
2022-09-23T16:00:46.386Z,3.00
2022-09-23T16:03:13.805Z,6.63
2022-09-23T16:05:43.226Z,4.90
2022-09-23T16:08:10.467Z,5.03
2022-09-23T16:10:37.700Z,4.07
2022-09-23T16:13:06.341Z,6.37
2022-09-23T16:15:33.760Z,5.83
2022-09-23T16:18:00.592Z,6.10
2022-09-23T16:20:29.664Z,4.60
2022-09-23T16:22:58.055Z,4.57
2022-09-23T16:25:27.436Z,4.40
2022-09-23T16:27:55.700Z,6.13
2022-09-23T16:30:26.373Z,3.70
2022-09-23T16:32:53.083Z,3.07
2022-09-23T16:35:20.537Z,6.30
2022-09-23T16:37:47.876Z,5.13
2022-09-23T16:40:21.230Z,4.70
2022-09-23T16:42:52.433Z,6.20
2022-09-23T16:45:22.980Z,6.30
2022-09-23T16:47:51.186Z,5.67
2022-09-23T16:50:19.054Z,6.13
2022-09-23T16:52:46.210Z,3.50
2022-09-23T16:55:13.563Z,5.53
2022-09-23T16:57:40.662Z,4.90
2022-09-23T17:00:27.862Z,7.87
2022-09-23T17:03:13.164Z,5.30
2022-09-23T17:05:39.872Z,4.97
2022-09-23T17:08:07.844Z,4.27
2022-09-23T17:10:34.416Z,4.77
2022-09-23T17:13:01.019Z,6.00
2022-09-23T17:15:27.659Z,5.20
2022-09-23T17:17:54.213Z,6.50
2022-09-23T17:20:20.863Z,6.30
2022-09-23T17:22:47.553Z,5.80
2022-09-23T17:25:14.347Z,7.43
2022-09-23T17:27:40.968Z,9.67
2022-09-23T17:30:07.862Z,6.93
2022-09-23T17:32:34.536Z,8.13
2022-09-23T17:35:04.721Z,6.53
2022-09-23T17:37:32.320Z,6.63
2022-09-23T17:39:59.730Z,6.90
2022-09-23T17:42:26.398Z,8.07
2022-09-23T17:44:56.172Z,7.03
2022-09-23T17:47:23.130Z,6.77
2022-09-23T17:49:49.985Z,9.63
2022-09-23T17:52:17.779Z,6.23
2022-09-23T17:54:45.383Z,8.83
2022-09-23T17:57:12.172Z,6.97
2022-09-23T17:59:38.734Z,6.23
2022-09-23T18:02:05.358Z,4.70
2022-09-23T18:04:31.981Z,5.93
2022-09-23T18:06:58.828Z,7.97
2022-09-23T18:09:25.451Z,10.93
2022-09-23T18:11:52.155Z,8.27
2022-09-23T18:14:20.309Z,10.90
2022-09-23T18:16:48.155Z,7.97
2022-09-23T18:19:15.840Z,7.03
2022-09-23T18:21:43.485Z,6.80
2022-09-23T18:26:59.795Z,8.00
2022-09-23T18:29:27.407Z,6.17
2022-09-23T18:31:54.259Z,5.37
2022-09-23T18:34:21.169Z,6.67
2022-09-23T18:36:48.073Z,5.93
2022-09-23T18:39:14.741Z,8.50
2022-09-23T18:41:41.343Z,6.37
2022-09-23T18:44:08.116Z,6.07
2022-09-23T18:46:34.780Z,9.00
2022-09-23T18:49:19.941Z,7.70
2022-09-23T18:51:47.821Z,8.63
2022-09-23T18:54:14.480Z,6.17
2022-09-23T18:56:42.087Z,8.40
2022-09-23T18:59:11.492Z,17.90
2022-09-23T19:01:38.352Z,14.93
2022-09-23T19:04:05.170Z,15.70
2022-09-23T19:06:32.654Z,10.10
2022-09-23T19:08:59.456Z,10.13
2022-09-23T19:11:26.119Z,6.40
2022-09-23T19:13:56.590Z,8.40
2022-09-23T19:16:23.660Z,11.50
2022-09-23T19:18:50.755Z,7.33
2022-09-23T19:21:18.453Z,6.70
2022-09-23T19:23:50.449Z,7.13
2022-09-23T19:26:19.564Z,9.37
2022-09-23T19:28:56.090Z,7.40
2022-09-23T19:31:23.879Z,10.90
2022-09-23T19:33:56.836Z,9.90
2022-09-23T19:36:24.827Z,9.30
2022-09-23T19:38:58.277Z,8.13
2022-09-23T19:41:25.491Z,7.83
2022-09-23T19:43:52.737Z,13.67
2022-09-23T19:46:19.603Z,12.03
2022-09-23T19:48:46.948Z,14.43
2022-09-23T19:51:13.556Z,12.30
2022-09-23T19:53:41.709Z,17.57
2022-09-23T19:56:08.745Z,18.37
2022-09-23T19:58:35.618Z,17.60
2022-09-23T20:01:07.032Z,14.50
2022-09-23T20:03:33.743Z,13.30
2022-09-23T20:06:00.417Z,13.07
2022-09-23T20:08:27.229Z,12.10
2022-09-23T20:10:55.085Z,10.80
2022-09-23T20:13:22.352Z,12.90
2022-09-23T20:15:49.105Z,10.57
2022-09-23T20:18:15.725Z,11.70
2022-09-23T20:20:42.327Z,10.70
2022-09-23T20:23:08.912Z,9.57
2022-09-23T20:25:54.229Z,9.27
2022-09-23T20:28:21.373Z,9.63
2022-09-23T20:30:48.775Z,9.17
2022-09-23T20:33:15.701Z,9.13
2022-09-23T20:35:43.903Z,11.10
2022-09-23T20:38:10.560Z,10.00
2022-09-23T20:40:38.563Z,8.63
2022-09-23T20:43:05.248Z,8.13
2022-09-23T20:45:32.081Z,11.87
2022-09-23T20:48:01.407Z,8.97
2022-09-23T20:50:27.967Z,9.73
2022-09-23T20:52:54.555Z,8.97
2022-09-23T20:55:21.128Z,8.50
2022-09-23T20:57:48.503Z,9.40
2022-09-23T21:00:15.641Z,9.00
2022-09-23T21:02:43.425Z,8.97
2022-09-23T21:05:10.643Z,8.20
2022-09-23T21:07:37.621Z,6.93
2022-09-23T21:10:04.911Z,10.63
2022-09-23T21:12:31.886Z,9.83
2022-09-23T21:14:58.435Z,8.83
2022-09-23T21:17:25.009Z,7.93
2022-09-23T21:19:51.762Z,9.50
2022-09-23T21:22:18.583Z,13.63
2022-09-23T21:25:25.875Z,8.33
2022-09-23T21:27:31.633Z,7.80
2022-09-23T21:29:59.171Z,9.20
2022-09-23T21:32:25.747Z,6.67
2022-09-23T21:34:53.297Z,6.60
2022-09-23T21:37:19.842Z,9.43
2022-09-23T21:40:06.454Z,12.67
2022-09-23T21:42:33.059Z,8.23
2022-09-23T21:44:59.605Z,10.30
2022-09-23T21:47:26.519Z,9.10
2022-09-23T21:49:53.154Z,8.97
2022-09-23T21:52:19.722Z,11.10
2022-09-23T21:54:46.564Z,10.50
2022-09-23T21:57:14.023Z,11.57
2022-09-23T21:59:40.723Z,13.97
2022-09-23T22:02:07.350Z,11.00
2022-09-23T22:04:34.517Z,10.60
2022-09-23T22:07:01.849Z,11.27
2022-09-23T22:09:28.466Z,14.47
2022-09-23T22:12:12.731Z,12.60
2022-09-23T22:14:39.936Z,10.53
2022-09-23T22:17:08.199Z,10.97
2022-09-23T22:19:36.763Z,12.97
2022-09-23T22:22:07.831Z,10.43
2022-09-23T22:24:34.469Z,10.90
2022-09-23T22:27:01.061Z,10.67
2022-09-23T22:29:46.249Z,10.60
2022-09-23T22:32:31.598Z,12.63
2022-09-23T22:34:58.311Z,14.67
2022-09-23T22:37:35.815Z,14.90
2022-09-23T22:40:03.998Z,13.03
2022-09-23T22:42:31.055Z,12.33
2022-09-23T22:44:57.665Z,14.20
2022-09-23T22:47:24.550Z,11.50
2022-09-23T22:49:54.548Z,11.43
2022-09-23T22:52:24.352Z,11.53
2022-09-23T22:54:51.924Z,10.27
2022-09-23T22:57:19.472Z,10.03
2022-09-23T22:59:48.083Z,10.40
2022-09-23T23:02:16.312Z,9.47
2022-09-23T23:04:45.320Z,10.23
2022-09-23T23:07:16.582Z,12.10
2022-09-23T23:09:43.148Z,12.37
2022-09-23T23:12:09.702Z,12.17
2022-09-23T23:14:36.630Z,10.67
2022-09-23T23:17:07.314Z,13.63
2022-09-23T23:19:35.034Z,12.17
2022-09-23T23:22:01.927Z,11.37
2022-09-23T23:24:28.643Z,11.50
2022-09-23T23:26:55.206Z,12.73
2022-09-23T23:29:21.961Z,11.97
2022-09-23T23:31:48.851Z,10.83
2022-09-23T23:34:21.791Z,11.97
2022-09-23T23:36:55.111Z,10.87
2022-09-23T23:39:23.672Z,12.30
2022-09-23T23:41:52.281Z,12.17
2022-09-23T23:44:18.924Z,10.60
2022-09-23T23:46:45.573Z,12.00
2022-09-23T23:49:12.192Z,8.77
2022-09-23T23:51:38.733Z,13.90
2022-09-23T23:54:05.363Z,11.30
2022-09-23T23:56:31.961Z,11.93
2022-09-23T23:58:59.975Z,9.80
